Time;durP1;ratioP1;P1;durP2;ratioP2;P2;SDS_P1;SDS_P2;PMS_P1;PMS_P2;Temp;Humidity;BMP_temperature;BMP_pressure;BME280_temperature;BME280_humidity;BME280_pressure;Samples;Min_cycle;Max_cycle;Signal;HPM_P1;HPM_P2
2022/11/02 00:00:49;;;;;;;21.80;15.03;;;;;;;11.14;100.00;99049.56;2135645;83;21031;-85
2022/11/02 00:03:51;;;;;;;21.20;16.10;;;;;;;11.14;100.00;99052.19;2135137;83;21048;-86
2022/11/02 00:06:52;;;;;;;22.32;16.67;;;;;;;11.16;100.00;99043.68;2135714;83;21599;-84
2022/11/02 00:09:53;;;;;;;24.95;16.82;;;;;;;11.17;100.00;99047.43;2135641;82;21044;-85
2022/11/02 00:12:54;;;;;;;22.37;15.83;;;;;;;11.16;100.00;99054.98;2135793;83;21036;-85
2022/11/02 00:15:54;;;;;;;22.05;14.50;;;;;;;11.17;100.00;99059.72;2135757;83;21017;-85
2022/11/02 00:18:55;;;;;;;22.58;16.42;;;;;;;11.16;100.00;99066.77;2135529;83;20973;-85
2022/11/02 00:21:57;;;;;;;21.52;14.70;;;;;;;11.18;100.00;99062.66;2135468;83;21107;-85
2022/11/02 00:24:58;;;;;;;21.23;15.20;;;;;;;11.17;100.00;99061.84;2135640;82;21534;-86
2022/11/02 00:27:59;;;;;;;23.25;15.10;;;;;;;11.17;100.00;99062.34;2135530;83;20970;-85
2022/11/02 00:31:00;;;;;;;20.35;15.25;;;;;;;11.19;100.00;99067.72;2135626;83;21072;-85
2022/11/02 00:34:00;;;;;;;19.25;14.43;;;;;;;11.21;100.00;99064.92;2135642;82;21013;-86
2022/11/02 00:37:01;;;;;;;21.35;16.02;;;;;;;11.22;100.00;99069.17;2135570;82;20958;-85
2022/11/02 00:40:02;;;;;;;19.00;14.35;;;;;;;11.23;100.00;99062.44;2135623;83;21160;-85
2022/11/02 00:43:03;;;;;;;20.82;14.85;;;;;;;11.27;100.00;99067.66;2135797;83;20945;-85
2022/11/02 00:46:04;;;;;;;21.57;14.10;;;;;;;11.33;100.00;99067.44;2135539;83;21044;-85
2022/11/02 00:49:05;;;;;;;24.07;15.18;;;;;;;11.34;100.00;99062.55;2135623;82;21468;-85
2022/11/02 00:52:06;;;;;;;19.20;13.98;;;;;;;11.38;100.00;99062.50;2135635;83;21032;-85
2022/11/02 00:55:07;;;;;;;19.57;14.90;;;;;;;11.42;100.00;99064.27;2135277;82;20999;-86
2022/11/02 00:58:08;;;;;;;19.32;13.10;;;;;;;11.39;100.00;99057.08;2133414;82;21038;-85
2022/11/02 01:01:09;;;;;;;22.22;14.53;;;;;;;11.39;100.00;99057.08;2131071;84;20992;-85
2022/11/02 01:04:10;;;;;;;19.05;14.40;;;;;;;11.44;100.00;99074.91;2131234;84;20989;-85
2022/11/02 01:07:10;;;;;;;22.07;15.98;;;;;;;11.48;100.00;99072.74;2130994;84;20916;-85
2022/11/02 01:10:11;;;;;;;19.87;15.43;;;;;;;11.53;100.00;99067.30;2131173;84;20951;-85
2022/11/02 01:13:12;;;;;;;24.77;14.90;;;;;;;11.54;100.00;99075.48;2132477;84;20987;-87
2022/11/02 01:16:13;;;;;;;23.02;13.50;;;;;;;11.54;100.00;99075.48;2135278;84;21003;-84
2022/11/02 01:19:14;;;;;;;19.67;14.55;;;;;;;11.54;100.00;99071.55;2133747;84;21035;-85
2022/11/02 01:22:14;;;;;;;18.48;14.00;;;;;;;11.58;100.00;99072.81;2131180;84;21000;-85
2022/11/02 01:25:15;;;;;;;16.40;13.68;;;;;;;11.57;100.00;99079.05;2131238;84;20954;-85
2022/11/02 01:28:16;;;;;;;19.80;15.18;;;;;;;11.60;100.00;99083.94;2131076;84;20998;-85
2022/11/02 01:31:17;;;;;;;21.68;14.13;;;;;;;11.57;100.00;99084.80;2130959;84;20944;-85
2022/11/02 01:34:17;;;;;;;19.77;14.95;;;;;;;11.54;100.00;99085.97;2134447;84;20999;-85
2022/11/02 01:37:18;;;;;;;19.98;14.87;;;;;;;11.53;100.00;99074.36;2131416;84;20975;-85
2022/11/02 01:40:19;;;;;;;20.08;15.03;;;;;;;11.49;100.00;99078.30;2130836;83;20967;-85
2022/11/02 01:43:20;;;;;;;20.10;13.58;;;;;;;11.46;100.00;99078.67;2131153;84;21529;-85
2022/11/02 01:46:21;;;;;;;20.62;14.47;;;;;;;11.40;100.00;99079.67;2131608;84;21424;-85
2022/11/02 01:49:21;;;;;;;25.92;17.48;;;;;;;11.41;100.00;99079.18;2134285;84;21333;-85
2022/11/02 01:52:22;;;;;;;21.00;15.80;;;;;;;11.40;100.00;99081.48;2131112;84;21042;-85
2022/11/02 01:55:23;;;;;;;25.05;16.45;;;;;;;11.42;100.00;99086.05;2131242;84;20987;-86
2022/11/02 01:58:24;;;;;;;22.70;16.15;;;;;;;11.41;100.00;99084.42;2132727;83;21118;-86
2022/11/02 02:01:25;;;;;;;22.65;14.87;;;;;;;11.50;100.00;99085.99;2135559;83;21007;-85
2022/11/02 02:04:25;;;;;;;18.98;15.30;;;;;;;11.47;100.00;99090.78;2135716;83;21037;-85
2022/11/02 02:07:26;;;;;;;20.90;14.33;;;;;;;11.43;100.00;99091.64;2135340;83;21002;-84
2022/11/02 02:10:27;;;;;;;20.17;14.38;;;;;;;11.42;100.00;99088.67;2135598;83;20959;-85
2022/11/02 02:13:28;;;;;;;18.42;14.73;;;;;;;11.40;100.00;99088.85;2135677;82;21038;-84
2022/11/02 02:16:28;;;;;;;20.02;14.07;;;;;;;11.39;100.00;99091.66;2135555;83;20959;-85
2022/11/02 02:19:29;;;;;;;20.52;14.55;;;;;;;11.38;100.00;99091.34;2135532;83;20959;-85
2022/11/02 02:22:30;;;;;;;18.87;13.93;;;;;;;11.37;100.00;99087.91;2135574;83;21086;-85
2022/11/02 02:25:31;;;;;;;21.10;14.38;;;;;;;11.38;100.00;99089.53;2135463;83;21450;-84
2022/11/02 02:28:31;;;;;;;20.52;15.63;;;;;;;11.40;100.00;99093.28;2135576;83;21513;-85
2022/11/02 02:31:32;;;;;;;21.07;15.48;;;;;;;11.37;100.00;99087.09;2135482;83;21038;-85
2022/11/02 02:34:33;;;;;;;18.00;14.83;;;;;;;11.32;100.00;99094.16;2135649;83;20987;-85
2022/11/02 02:37:34;;;;;;;23.42;17.17;;;;;;;11.29;100.00;99092.39;2135548;83;21066;-85
2022/11/02 02:40:34;;;;;;;21.55;13.65;;;;;;;11.27;100.00;99094.37;2135477;83;21473;-85
2022/11/02 02:43:35;;;;;;;20.15;14.87;;;;;;;11.25;100.00;99095.05;2135381;83;20998;-85
2022/11/02 02:46:36;;;;;;;18.45;14.38;;;;;;;11.16;100.00;99097.41;2135851;83;21003;-84
2022/11/02 02:49:37;;;;;;;23.20;15.25;;;;;;;11.08;100.00;99103.02;2135547;83;20955;-85
2022/11/02 02:52:37;;;;;;;21.60;15.72;;;;;;;11.00;100.00;99106.17;2135467;83;21590;-85
2022/11/02 02:55:38;;;;;;;21.68;15.28;;;;;;;10.93;100.00;99111.77;2135633;83;21015;-85
2022/11/02 02:58:39;;;;;;;24.65;16.67;;;;;;;10.87;100.00;99113.76;2133625;83;20964;-85
2022/11/02 03:01:40;;;;;;;21.25;15.90;;;;;;;10.81;100.00;99116.09;2130806;83;20979;-85
2022/11/02 03:04:40;;;;;;;20.70;15.25;;;;;;;10.76;100.00;99117.58;2131230;84;20928;-85
2022/11/02 03:07:41;;;;;;;22.17;15.90;;;;;;;10.69;100.00;99114.00;2131181;84;20971;-85
2022/11/02 03:10:42;;;;;;;21.70;13.80;;;;;;;10.60;100.00;99115.02;2131092;84;20979;-85
2022/11/02 03:13:43;;;;;;;23.65;16.00;;;;;;;10.54;100.00;99122.59;2130998;84;20963;-85
2022/11/02 03:16:43;;;;;;;23.38;16.45;;;;;;;10.47;100.00;99124.73;2130967;84;21023;-85
2022/11/02 03:19:44;;;;;;;21.00;15.03;;;;;;;10.41;100.00;99126.21;2131165;84;21522;-85
2022/11/02 03:22:45;;;;;;;22.13;15.13;;;;;;;10.38;100.00;99124.44;2131286;84;20944;-86
2022/11/02 03:25:45;;;;;;;26.17;16.50;;;;;;;10.32;100.00;99129.02;2131172;83;21011;-85
2022/11/02 03:28:46;;;;;;;21.30;15.68;;;;;;;10.23;100.00;99125.11;2130966;84;21019;-85
2022/11/02 03:31:47;;;;;;;22.85;14.90;;;;;;;10.20;100.00;99129.84;2131117;84;20963;-85
2022/11/02 03:34:48;;;;;;;22.67;16.20;;;;;;;10.16;100.00;99131.17;2133669;84;20971;-85
2022/11/02 03:37:48;;;;;;;28.02;18.02;;;;;;;10.13;100.00;99134.10;2131736;84;20964;-85
2022/11/02 03:40:49;;;;;;;24.95;17.45;;;;;;;10.10;100.00;99144.91;2131036;84;21026;-85
2022/11/02 03:43:50;;;;;;;25.40;17.32;;;;;;;10.09;100.00;99143.28;2131112;84;20991;-85
2022/11/02 03:46:51;;;;;;;27.22;17.75;;;;;;;10.07;100.00;99138.71;2131241;84;20996;-85
2022/11/02 03:49:51;;;;;;;24.20;15.78;;;;;;;10.03;100.00;99140.82;2134472;84;21010;-86
2022/11/02 03:52:52;;;;;;;26.52;16.87;;;;;;;9.96;100.00;99140.66;2131368;84;20999;-86
2022/11/02 03:55:53;;;;;;;23.87;16.77;;;;;;;9.92;100.00;99137.24;2131119;84;20960;-85
2022/11/02 03:58:54;;;;;;;24.50;16.52;;;;;;;9.87;100.00;99148.19;2132581;83;21006;-84
2022/11/02 04:01:54;;;;;;;28.30;16.75;;;;;;;9.87;100.00;99140.83;2135439;83;21490;-85
2022/11/02 04:04:55;;;;;;;27.80;17.40;;;;;;;9.82;100.00;99147.87;2135744;83;21026;-85
2022/11/02 04:14:37;;;;;;;24.43;16.93;;;;;;;9.75;100.00;99155.23;2135840;83;21510;-85
2022/11/02 04:20:57;;;;;;;24.57;17.00;;;;;;;9.71;100.00;99160.47;2135998;83;21034;-86
2022/11/02 04:27:17;;;;;;;31.87;18.98;;;;;;;9.75;100.00;99161.77;2135791;83;21038;-85
2022/11/02 04:30:18;;;;;;;27.48;17.85;;;;;;;9.82;100.00;99151.80;2135786;83;20987;-85
2022/11/02 04:33:34;;;;;;;29.48;18.05;;;;;;;9.90;100.00;99150.49;2135715;83;20951;-86
2022/11/02 04:36:35;;;;;;;26.50;17.75;;;;;;;9.93;100.00;99155.87;2135690;83;21063;-85
2022/11/02 04:39:35;;;;;;;27.90;17.90;;;;;;;9.94;100.00;99154.89;2135651;83;21003;-86
2022/11/02 04:42:36;;;;;;;27.10;17.98;;;;;;;9.90;100.00;99154.91;2135584;83;21002;-87
2022/11/02 04:45:37;;;;;;;23.05;16.87;;;;;;;9.83;100.00;99161.77;2135672;83;21458;-80
2022/11/02 04:48:38;;;;;;;24.55;18.15;;;;;;;9.77;100.00;99165.84;2135659;83;20975;-81
2022/11/02 04:51:39;;;;;;;24.80;17.40;;;;;;;9.76;100.00;99166.83;2135628;83;21067;-80
2022/11/02 04:54:40;;;;;;;27.85;18.85;;;;;;;9.74;100.00;99170.10;2135594;83;20979;-80
2022/11/02 04:57:40;;;;;;;28.07;18.23;;;;;;;9.74;100.00;99165.36;2135949;83;20960;-82
2022/11/02 05:00:41;;;;;;;29.55;19.05;;;;;;;9.74;100.00;99168.80;2131584;83;20995;-80
2022/11/02 05:03:42;;;;;;;27.73;19.20;;;;;;;9.71;100.00;99173.05;2130992;84;21042;-82
2022/11/02 05:06:43;;;;;;;27.32;19.23;;;;;;;9.74;100.00;99177.95;2131318;84;22061;-80
2022/11/02 05:09:44;;;;;;;28.90;18.15;;;;;;;9.79;100.00;99176.16;2131303;84;20963;-83
2022/11/02 05:12:44;;;;;;;30.10;18.42;;;;;;;9.85;100.00;99166.34;2131044;84;20987;-82
2022/11/02 05:15:45;;;;;;;25.65;17.45;;;;;;;9.89;100.00;99165.86;2131126;84;20994;-82
2022/11/02 05:18:46;;;;;;;28.38;19.55;;;;;;;9.88;100.00;99169.47;2131257;84;21014;-82
2022/11/02 05:21:47;;;;;;;31.40;19.70;;;;;;;9.86;100.00;99173.20;2131072;84;20979;-82
2022/11/02 05:24:47;;;;;;;27.70;18.90;;;;;;;9.84;100.00;99175.98;2131250;84;20998;-82
2022/11/02 05:27:48;;;;;;;27.13;17.92;;;;;;;9.81;100.00;99181.55;2130974;84;20995;-82
2022/11/02 05:30:49;;;;;;;28.12;19.40;;;;;;;9.80;100.00;99185.16;2131048;84;20991;-82
2022/11/02 05:33:50;;;;;;;25.97;17.92;;;;;;;9.84;100.00;99200.02;2131025;84;21047;-81
2022/11/02 05:36:50;;;;;;;27.95;19.77;;;;;;;9.90;100.00;99195.45;2131019;84;21522;-81
2022/11/02 05:39:51;;;;;;;28.23;19.10;;;;;;;9.98;100.00;99199.38;2131023;84;21022;-82
2022/11/02 05:42:52;;;;;;;24.82;17.82;;;;;;;10.07;100.00;99206.73;2131018;84;20971;-82
2022/11/02 05:45:53;;;;;;;28.73;19.30;;;;;;;10.14;100.00;99193.30;2131119;84;21466;-85
2022/11/02 05:48:53;;;;;;;36.90;21.33;;;;;;;10.23;100.00;99197.08;2131098;84;21248;-81
2022/11/02 05:51:54;;;;;;;29.02;18.92;;;;;;;10.33;100.00;99197.39;2131141;84;21046;-87
2022/11/02 05:54:55;;;;;;;26.02;17.20;;;;;;;10.41;100.00;99205.23;2131054;84;20964;-81
2022/11/02 05:57:56;;;;;;;33.45;19.23;;;;;;;10.46;100.00;99198.53;2131315;84;21003;-81
2022/11/02 06:00:58;;;;;;;31.37;20.23;;;;;;;10.55;100.00;99204.57;2134423;83;21151;-81
2022/11/02 06:03:59;;;;;;;27.87;19.15;;;;;;;10.62;100.00;99203.42;2135502;83;21490;-82
2022/11/02 06:07:00;;;;;;;25.82;19.92;;;;;;;10.70;100.00;99209.45;2135564;83;21115;-80
2022/11/02 06:10:01;;;;;;;30.77;19.95;;;;;;;10.74;100.00;99206.80;2135654;83;20955;-81
2022/11/02 06:13:02;;;;;;;30.35;18.92;;;;;;;10.79;100.00;99214.98;2135163;83;21589;-81
2022/11/02 06:16:03;;;;;;;23.15;17.07;;;;;;;10.85;100.00;99214.79;2135417;83;20975;-81
2022/11/02 06:19:04;;;;;;;26.70;19.25;;;;;;;10.87;100.00;99211.50;2135512;83;20982;-81
2022/11/02 06:22:05;;;;;;;26.97;18.10;;;;;;;10.91;100.00;99212.00;2135592;83;21447;-82
2022/11/02 06:25:05;;;;;;;25.05;17.52;;;;;;;10.88;100.00;99216.25;2135654;83;21054;-82
2022/11/02 06:28:06;;;;;;;32.63;19.90;;;;;;;10.88;100.00;99216.25;2135536;83;20987;-81
2022/11/02 06:31:07;;;;;;;30.48;18.57;;;;;;;10.92;100.00;99227.55;2135458;83;20943;-82
2022/11/02 06:34:08;;;;;;;25.32;19.45;;;;;;;10.93;100.00;99226.55;2135549;83;20995;-82
2022/11/02 06:37:11;;;;;;;27.75;19.25;;;;;;;10.96;100.00;99217.53;2017718;88;21569;-81
2022/11/02 06:40:11;;;;;;;23.70;18.37;;;;;;;11.01;100.00;99221.78;2018076;88;21073;-82
2022/11/02 06:43:12;;;;;;;25.32;17.82;;;;;;;11.04;100.00;99226.17;2018259;88;21098;-81
2022/11/02 06:46:13;;;;;;;25.52;18.52;;;;;;;11.02;100.00;99222.10;2018413;88;21470;-81
2022/11/02 06:49:14;;;;;;;27.02;18.25;;;;;;;11.06;100.00;99223.38;2018222;88;21113;-81
2022/11/02 06:52:17;;;;;;;26.60;17.95;;;;;;;11.09;100.00;99223.06;2018209;88;20996;-81
2022/11/02 06:55:17;;;;;;;25.75;18.48;;;;;;;11.19;100.00;99226.78;2017611;87;21502;-81
2022/11/02 06:58:18;;;;;;;27.27;18.00;;;;;;;11.29;100.00;99224.77;2017780;88;21082;-81
2022/11/02 07:01:21;;;;;;;25.35;18.15;;;;;;;11.36;100.00;99223.10;2001926;88;21064;-81
2022/11/02 07:04:21;;;;;;;24.27;17.02;;;;;;;11.36;100.00;99223.92;2025155;88;21627;-81
2022/11/02 07:07:22;;;;;;;26.20;18.45;;;;;;;11.42;100.00;99228.13;2025287;88;21008;-81
2022/11/02 07:10:23;;;;;;;25.57;18.23;;;;;;;11.47;100.00;99231.06;2025330;88;21029;-82
2022/11/02 07:13:27;;;;;;;26.48;18.00;;;;;;;11.52;100.00;99232.66;2025193;88;21127;-83
2022/11/02 07:16:26;;;;;;;23.57;17.17;;;;;;;11.63;100.00;99230.98;2025079;87;21152;-85
2022/11/02 07:19:27;;;;;;;25.50;17.40;;;;;;;11.71;100.00;99226.18;2025431;88;20989;-82
2022/11/02 07:22:28;;;;;;;32.05;18.27;;;;;;;11.75;100.00;99230.08;2025173;88;21183;-81
2022/11/02 07:25:31;;;;;;;28.30;18.10;;;;;;;11.82;100.00;99226.62;2025289;88;21049;-81
2022/11/02 07:28:32;;;;;;;29.92;18.77;;;;;;;11.88;100.00;99227.20;2025282;88;21064;-81
2022/11/02 07:31:33;;;;;;;29.00;18.57;;;;;;;11.93;100.00;99226.20;2025516;88;21476;-82
2022/11/02 07:34:34;;;;;;;29.72;19.02;;;;;;;11.97;100.00;99220.09;2085839;85;21042;-83
2022/11/02 07:37:35;;;;;;;26.27;18.50;;;;;;;12.03;100.00;99229.08;2102652;85;21054;-82
2022/11/02 07:40:39;;;;;;;29.42;18.50;;;;;;;12.07;100.00;99229.03;2103085;85;21130;-80
2022/11/02 07:43:50;;;;;;;30.02;18.57;;;;;;;12.15;100.00;99226.34;2099214;85;21086;-79
2022/11/02 07:46:52;;;;;;;26.85;18.80;;;;;;;12.19;100.00;99227.64;2102807;85;21046;-84
2022/11/02 07:49:54;;;;;;;26.52;16.52;;;;;;;12.24;100.00;99228.72;2073933;85;21553;-83
2022/11/02 07:52:55;;;;;;;25.02;16.97;;;;;;;12.29;100.00;99236.58;2102854;85;21030;-81
2022/11/02 07:55:56;;;;;;;26.70;17.40;;;;;;;12.31;100.00;99231.96;2103111;85;21094;-80
2022/11/02 07:58:57;;;;;;;25.08;17.27;;;;;;;12.35;100.00;99231.95;2102862;85;21003;-80
2022/11/02 08:01:57;;;;;;;25.15;15.88;;;;;;;12.39;100.00;99229.27;2134778;83;21072;-81
2022/11/02 08:04:58;;;;;;;23.75;15.83;;;;;;;12.43;100.00;99220.84;2135144;83;21001;-77
2022/11/02 08:07:59;;;;;;;26.37;16.42;;;;;;;12.55;100.00;99222.55;2135052;83;20977;-81
2022/11/02 08:11:00;;;;;;;21.77;15.25;;;;;;;12.61;100.00;99224.44;2134891;83;21008;-78
2022/11/02 08:14:01;;;;;;;22.22;15.98;;;;;;;12.70;100.00;99227.80;2134836;83;20985;-80
2022/11/02 08:17:02;;;;;;;25.23;17.45;;;;;;;12.79;100.00;99227.53;2134765;83;21024;-77
2022/11/02 08:20:03;;;;;;;21.52;14.78;;;;;;;12.87;100.00;99223.19;2134923;83;21572;-80
2022/11/02 08:23:04;;;;;;;22.32;14.87;;;;;;;12.91;100.00;99220.03;2134970;83;21012;-81
2022/11/02 08:26:05;;;;;;;22.70;15.65;;;;;;;12.96;100.00;99216.84;2135411;83;21505;-81
2022/11/02 08:29:05;;;;;;;25.52;15.35;;;;;;;12.97;100.00;99221.09;2135076;83;21039;-79
2022/11/02 08:32:06;;;;;;;19.48;14.87;;;;;;;13.02;100.00;99219.56;2134844;83;20988;-81
2022/11/02 08:35:07;;;;;;;18.05;13.65;;;;;;;13.07;100.00;99224.25;2134936;83;20957;-82
2022/11/02 08:38:11;;;;;;;20.40;14.68;;;;;;;13.10;100.00;99221.28;2134935;83;21005;-80
2022/11/02 08:41:13;;;;;;;16.87;13.03;;;;;;;13.17;100.00;99217.42;2134945;83;21346;-81
2022/11/02 08:44:14;;;;;;;18.50;13.25;;;;;;;13.24;100.00;99225.72;2134862;83;21073;-84
2022/11/02 08:47:16;;;;;;;21.23;13.68;;;;;;;13.33;100.00;99220.66;2135080;83;20977;-80
2022/11/02 08:50:17;;;;;;;22.07;13.28;;;;;;;13.44;100.00;99214.61;2135086;83;21028;-83
2022/11/02 08:53:18;;;;;;;17.77;13.45;;;;;;;13.51;100.00;99218.13;2134935;83;20976;-81
2022/11/02 08:56:20;;;;;;;17.35;12.13;;;;;;;13.56;100.00;99221.03;2134354;83;21068;-80
2022/11/02 08:59:21;;;;;;;19.42;12.63;;;;;;;13.58;100.00;99219.02;2134459;83;21040;-81
2022/11/02 09:02:22;;;;;;;19.32;13.15;;;;;;;13.61;100.00;99214.70;2141222;83;21105;-81
2022/11/02 09:05:23;;;;;;;21.30;12.63;;;;;;;13.70;100.00;99213.58;2129423;83;21427;-80
2022/11/02 09:08:24;;;;;;;20.97;12.63;;;;;;;13.80;100.00;99208.00;2155868;80;20981;-79
2022/11/02 09:11:25;;;;;;;20.17;12.98;;;;;;;13.87;100.00;99208.88;2186885;80;21515;-79
2022/11/02 09:14:28;;;;;;;18.73;11.80;;;;;;;13.99;100.00;99206.08;2180649;80;21015;-79
2022/11/02 09:17:30;;;;;;;18.00;12.18;;;;;;;14.10;100.00;99204.74;2180911;80;21037;-80
2022/11/02 09:20:31;;;;;;;15.72;12.00;;;;;;;14.19;100.00;99206.23;2185931;80;21494;-80
2022/11/02 09:23:31;;;;;;;18.20;11.50;;;;;;;14.21;100.00;99195.00;2165062;80;21027;-80
2022/11/02 09:26:32;;;;;;;17.05;11.97;;;;;;;14.27;100.00;99204.78;2172065;82;20948;-79
2022/11/02 09:29:35;;;;;;;20.10;12.28;;;;;;;14.34;100.00;99199.03;2194507;80;21080;-80
2022/11/02 09:32:38;;;;;;;15.50;12.23;;;;;;;14.40;100.00;99194.83;2210438;80;21072;-79
2022/11/02 09:35:39;;;;;;;15.90;11.12;;;;;;;14.46;100.00;99190.15;2211882;80;21026;-79
2022/11/02 09:38:40;;;;;;;15.15;10.85;;;;;;;14.48;100.00;99192.09;2213332;80;20989;-82
2022/11/02 09:41:40;;;;;;;23.47;11.50;;;;;;;14.52;100.00;99190.68;2213087;80;21085;-82
2022/11/02 09:44:41;;;;;;;11.70;9.80;;;;;;;14.54;100.00;99189.16;2213745;80;20965;-81
2022/11/02 09:47:42;;;;;;;13.45;8.85;;;;;;;14.59;100.00;99192.86;2213017;80;21092;-81
2022/11/02 09:50:45;;;;;;;15.03;9.70;;;;;;;14.66;100.00;99190.27;2211772;80;20986;-80
2022/11/02 09:53:46;;;;;;;14.80;9.33;;;;;;;14.73;100.00;99192.45;2213021;80;21069;-79
2022/11/02 09:56:46;;;;;;;11.75;9.03;;;;;;;14.80;100.00;99190.63;2213356;80;20965;-79
2022/11/02 09:59:47;;;;;;;11.85;8.18;;;;;;;14.82;100.00;99193.10;2215115;80;20981;-80
2022/11/02 10:02:48;;;;;;;12.18;8.53;;;;;;;14.85;100.00;99186.92;2236955;80;21019;-80
2022/11/02 10:05:49;;;;;;;14.03;7.97;;;;;;;14.88;100.00;99197.58;2222727;80;20922;-80
2022/11/02 10:08:49;;;;;;;11.90;8.18;;;;;;;14.92;100.00;99195.69;2216773;80;21523;-80
2022/11/02 10:11:50;;;;;;;10.63;7.60;;;;;;;14.94;100.00;99194.16;2216749;80;21001;-80
2022/11/02 10:14:51;;;;;;;8.25;6.37;;;;;;;14.94;100.00;99196.30;2216776;80;20914;-80
2022/11/02 10:17:52;;;;;;;11.10;7.65;;;;;;;14.93;100.00;99197.31;2218319;80;21000;-80
2022/11/02 10:20:53;;;;;;;12.53;7.22;;;;;;;14.94;100.00;99194.16;2216414;80;20996;-80
2022/11/02 10:23:54;;;;;;;12.23;6.53;;;;;;;14.94;100.00;99185.75;2216249;80;20961;-80
2022/11/02 10:26:55;;;;;;;9.83;6.37;;;;;;;14.94;100.00;99187.06;2216468;80;21025;-80
2022/11/02 10:29:55;;;;;;;14.95;7.50;;;;;;;14.97;100.00;99185.34;2216649;80;21567;-80
2022/11/02 10:32:56;;;;;;;15.60;6.78;;;;;;;15.03;100.00;99191.17;2216515;80;20961;-81
2022/11/02 10:35:57;;;;;;;9.80;6.65;;;;;;;15.14;100.00;99192.42;2216408;80;20922;-80
2022/11/02 10:38:58;;;;;;;10.25;6.65;;;;;;;15.28;100.00;99197.25;2216510;80;21523;-79
2022/11/02 10:41:59;;;;;;;10.58;6.45;;;;;;;15.43;100.00;99189.97;2216469;80;21452;-80
2022/11/02 10:45:00;;;;;;;7.75;6.78;;;;;;;15.62;100.00;99189.23;2216457;80;20993;-80
2022/11/02 10:48:01;;;;;;;10.45;6.83;;;;;;;15.86;100.00;99191.81;2196423;80;20984;-80
2022/11/02 10:51:02;;;;;;;10.65;6.67;;;;;;;16.07;100.00;99192.13;2216784;80;21012;-79
2022/11/02 10:54:02;;;;;;;11.18;6.83;;;;;;;16.21;100.00;99187.67;2216479;80;21035;-80
2022/11/02 10:57:03;;;;;;;9.25;6.60;;;;;;;16.31;100.00;99192.02;2216443;80;20981;-80
2022/11/02 11:00:06;;;;;;;9.98;6.70;;;;;;;16.38;100.00;99190.20;2215078;80;21020;-79
2022/11/02 11:03:06;;;;;;;12.43;7.15;;;;;;;16.37;100.00;99190.41;2205235;81;21069;-78
2022/11/02 11:06:07;;;;;;;15.00;6.25;;;;;;;16.32;100.00;99181.76;2205420;81;20961;-80
2022/11/02 11:09:08;;;;;;;7.60;6.15;;;;;;;16.29;100.00;99188.78;2205408;81;20973;-78
2022/11/02 11:12:09;;;;;;;10.90;6.40;;;;;;;16.27;100.00;99188.15;2205332;81;20954;-79
2022/11/02 11:15:10;;;;;;;8.63;5.87;;;;;;;16.23;100.00;99186.95;2205486;81;21105;-79
2022/11/02 11:18:12;;;;;;;8.18;5.85;;;;;;;16.19;100.00;99179.14;2205477;81;21460;-79
2022/11/02 11:21:13;;;;;;;9.33;5.75;;;;;;;16.17;100.00;99183.28;2205298;81;21101;-80
2022/11/02 11:24:14;;;;;;;9.45;5.62;;;;;;;16.13;100.00;99182.08;2205436;81;20993;-80
2022/11/02 11:27:14;;;;;;;10.32;6.17;;;;;;;16.13;100.00;99180.75;2205419;81;20990;-80
2022/11/02 11:30:15;;;;;;;7.55;5.80;;;;;;;16.11;100.00;99182.80;2205718;81;20969;-80
2022/11/02 11:33:16;;;;;;;11.53;6.83;;;;;;;16.09;100.00;99176.91;2205641;81;21036;-80
2022/11/02 11:36:17;;;;;;;10.63;5.55;;;;;;;16.05;100.00;99176.18;2205371;81;20934;-79
2022/11/02 11:39:17;;;;;;;12.05;6.15;;;;;;;16.06;100.00;99169.38;2205427;81;21072;-80
2022/11/02 11:42:18;;;;;;;10.75;7.30;;;;;;;16.13;100.00;99170.19;2206480;81;21001;-79
2022/11/02 11:45:19;;;;;;;9.13;6.17;;;;;;;16.15;100.00;99164.70;2205861;81;21491;-79
2022/11/02 11:48:20;;;;;;;11.80;7.25;;;;;;;16.11;100.00;99168.27;2205386;81;21001;-79
2022/11/02 11:51:20;;;;;;;12.50;7.55;;;;;;;16.09;100.00;99170.30;2205711;80;20954;-80
2022/11/02 11:54:21;;;;;;;10.23;6.22;;;;;;;16.06;100.00;99171.20;2205392;81;21353;-79
2022/11/02 11:57:22;;;;;;;9.18;6.15;;;;;;;16.00;100.00;99170.20;2206290;81;21032;-80
2022/11/02 12:00:23;;;;;;;7.22;5.87;;;;;;;15.94;100.00;99168.36;2206424;80;21085;-79
2022/11/02 12:03:24;;;;;;;10.18;6.28;;;;;;;15.90;100.00;99167.94;2216727;80;21551;-79
2022/11/02 12:06:24;;;;;;;9.20;5.78;;;;;;;15.87;100.00;99172.83;2216830;80;21452;-79
2022/11/02 12:09:25;;;;;;;6.28;5.40;;;;;;;15.86;100.00;99166.73;2216583;80;21350;-79
2022/11/02 12:12:27;;;;;;;9.30;5.60;;;;;;;15.89;100.00;99170.28;2216837;80;20993;-80
2022/11/02 12:15:27;;;;;;;9.45;5.85;;;;;;;15.95;100.00;99173.95;2216571;80;21065;-79
2022/11/02 12:18:28;;;;;;;8.25;5.75;;;;;;;15.98;100.00;99172.21;2196735;80;20985;-80
2022/11/02 12:21:29;;;;;;;7.15;6.28;;;;;;;16.00;100.00;99166.24;2216509;80;21041;-79
2022/11/02 12:24:30;;;;;;;6.50;4.87;;;;;;;16.01;100.00;99164.41;2216666;80;21559;-80
2022/11/02 12:27:31;;;;;;;8.48;5.10;;;;;;;16.00;100.00;99164.08;2216531;80;20964;-82
2022/11/02 12:30:32;;;;;;;7.80;5.53;;;;;;;15.91;100.00;99162.98;2217272;80;21299;-81
2022/11/02 12:33:32;;;;;;;6.30;5.40;;;;;;;15.83;100.00;99159.73;2216547;80;20992;-80
2022/11/02 12:36:33;;;;;;;6.70;5.42;;;;;;;15.73;100.00;99166.73;2216550;80;21069;-81
2022/11/02 12:39:36;;;;;;;8.90;5.55;;;;;;;15.66;100.00;99173.02;2216776;80;21028;-81
2022/11/02 12:42:39;;;;;;;10.50;4.35;;;;;;;15.57;100.00;99169.72;2216538;80;21040;-82
2022/11/02 12:48:42;;;;;;;5.22;4.20;;;;;;;15.40;100.00;99172.42;2138619;83;21031;-78
2022/11/02 12:51:43;;;;;;;4.65;3.98;;;;;;;15.31;100.00;99165.19;2138620;83;21069;-82
2022/11/02 12:54:43;;;;;;;11.10;5.55;;;;;;;15.26;100.00;99164.95;2138629;83;21370;-82
2022/11/02 12:57:44;;;;;;;9.73;6.22;;;;;;;15.21;100.00;99165.57;2138618;83;21032;-79
2022/11/02 13:00:45;;;;;;;8.33;5.12;;;;;;;15.16;100.00;99164.02;2137770;83;21105;-83
2022/11/02 13:03:46;;;;;;;6.10;4.55;;;;;;;15.11;100.00;99175.68;2132374;83;21020;-80
2022/11/02 13:06:47;;;;;;;8.25;4.40;;;;;;;15.05;100.00;99168.55;2132215;83;21004;-80
2022/11/02 13:09:48;;;;;;;9.15;3.60;;;;;;;14.98;100.00;99164.56;2132477;83;20997;-81
2022/11/02 13:12:48;;;;;;;5.58;4.08;;;;;;;14.94;100.00;99167.80;2131929;83;21074;-81
2022/11/02 13:15:49;;;;;;;9.85;5.53;;;;;;;14.91;100.00;99160.30;2132412;83;22171;-79
2022/11/02 13:18:52;;;;;;;6.00;4.45;;;;;;;14.88;100.00;99169.89;2132174;83;21059;-81
2022/11/02 13:21:55;;;;;;;7.60;3.95;;;;;;;14.85;100.00;99165.83;2132319;83;21104;-79
2022/11/02 13:24:56;;;;;;;7.60;4.70;;;;;;;14.81;100.00;99156.67;2132375;83;21104;-79
2022/11/02 13:27:57;;;;;;;7.80;4.75;;;;;;;14.78;100.00;99161.03;2132438;83;20941;-79
2022/11/02 13:30:57;;;;;;;16.00;6.90;;;;;;;14.76;100.00;99157.78;2132392;83;21333;-81
2022/11/02 13:33:59;;;;;;;12.23;5.10;;;;;;;14.71;100.00;99158.86;2132156;83;21025;-79
2022/11/02 13:36:59;;;;;;;12.07;6.87;;;;;;;14.67;100.00;99154.49;2132255;83;20996;-80
2022/11/02 13:40:00;;;;;;;18.45;5.28;;;;;;;14.64;100.00;99153.57;2132534;83;20989;-80
2022/11/02 13:43:01;;;;;;;11.70;5.30;;;;;;;14.61;100.00;99158.41;2132340;83;20993;-80
2022/11/02 13:46:02;;;;;;;6.37;3.62;;;;;;;14.59;100.00;99160.42;2188998;81;21053;-80
2022/11/02 13:49:02;;;;;;;9.65;4.62;;;;;;;14.54;100.00;99159.70;2212797;80;21528;-79
2022/11/02 13:52:03;;;;;;;6.97;3.80;;;;;;;14.49;100.00;99164.22;2212975;80;21044;-80
2022/11/02 13:55:04;;;;;;;7.67;4.30;;;;;;;14.46;100.00;99163.30;2212930;80;21016;-79
2022/11/02 13:58:05;;;;;;;6.87;3.60;;;;;;;14.43;100.00;99163.63;2212870;80;20926;-81
2022/11/02 14:01:06;;;;;;;6.03;4.00;;;;;;;14.40;100.00;99168.48;2213489;80;21844;-80
2022/11/02 14:04:06;;;;;;;4.70;3.58;;;;;;;14.36;100.00;99168.07;2216101;80;21009;-80